Time;durP1;ratioP1;P1;durP2;ratioP2;P2;SDS_P1;SDS_P2;PMS_P1;PMS_P2;Temp;Humidity;BMP_temperature;BMP_pressure;BME280_temperature;BME280_humidity;BME280_pressure;Samples;Min_cycle;Max_cycle;Signal;HPM_P1;HPM_P2
2022/08/19 00:02:04;;;;;;;25.52;17.98;;;;;;;;;;5035671;28;20502;-61
2022/08/19 00:04:30;;;;;;;29.98;20.13;;;;;;;;;;5035882;28;20064;-61
2022/08/19 00:06:56;;;;;;;10.35;9.32;;;;;;;;;;5035866;28;20048;-60
2022/08/19 00:09:22;;;;;;;10.93;9.15;;;;;;;;;;5035793;28;20349;-61
2022/08/19 00:11:48;;;;;;;11.27;10.23;;;;;;;;;;5035461;28;20021;-61
2022/08/19 00:14:15;;;;;;;10.90;9.57;;;;;;;;;;5035351;28;20025;-61
2022/08/19 00:16:41;;;;;;;11.48;10.27;;;;;;;;;;5035651;28;20014;-60
2022/08/19 00:19:08;;;;;;;10.60;9.60;;;;;;;;;;5035553;28;20105;-61
2022/08/19 00:21:36;;;;;;;12.88;10.60;;;;;;;;;;5035558;28;20053;-61
2022/08/19 00:24:02;;;;;;;11.98;10.70;;;;;;;;;;5035245;28;20061;-61
2022/08/19 00:26:27;;;;;;;13.38;11.77;;;;;;;;;;5035418;28;20025;-61
2022/08/19 00:28:53;;;;;;;32.00;28.08;;;;;;;;;;5017807;28;20037;-61
2022/08/19 00:31:18;;;;;;;13.10;11.68;;;;;;;;;;5035078;28;20063;-61
2022/08/19 00:33:44;;;;;;;11.20;10.05;;;;;;;;;;5017626;28;20072;-61
2022/08/19 00:36:09;;;;;;;10.93;9.80;;;;;;;;;;5035268;28;20014;-61
2022/08/19 00:38:35;;;;;;;10.35;9.38;;;;;;;;;;5035241;28;20029;-61
2022/08/19 00:41:01;;;;;;;10.35;9.32;;;;;;;;;;5035439;28;20029;-61
2022/08/19 00:43:26;;;;;;;12.27;9.68;;;;;;;;;;5035422;28;20029;-61
2022/08/19 00:45:52;;;;;;;10.02;9.05;;;;;;;;;;5034811;28;20022;-61
2022/08/19 00:48:19;;;;;;;9.93;8.95;;;;;;;;;;5035034;28;20032;-61
2022/08/19 00:50:44;;;;;;;9.60;8.70;;;;;;;;;;5035016;28;20021;-61
2022/08/19 00:53:15;;;;;;;10.35;9.50;;;;;;;;;;5033524;28;20042;-61
2022/08/19 00:55:42;;;;;;;11.05;9.15;;;;;;;;;;5034872;28;20510;-61
2022/08/19 00:58:09;;;;;;;10.55;9.55;;;;;;;;;;5034833;28;20033;-61
2022/08/19 01:00:36;;;;;;;10.63;9.05;;;;;;;;;;5034816;28;20021;-61
2022/08/19 01:03:06;;;;;;;11.02;9.18;;;;;;;;;;5034441;28;20078;-61
2022/08/19 01:05:32;;;;;;;10.52;9.27;;;;;;;;;;5034545;28;20029;-61
2022/08/19 01:07:59;;;;;;;10.20;9.20;;;;;;;;;;5034648;28;20041;-61
2022/08/19 01:10:26;;;;;;;9.68;8.77;;;;;;;;;;5017447;28;20372;-61
2022/08/19 01:12:53;;;;;;;11.45;9.95;;;;;;;;;;5034491;28;20079;-61
2022/08/19 01:15:20;;;;;;;9.65;8.75;;;;;;;;;;5034538;28;20014;-61
2022/08/19 01:17:47;;;;;;;9.90;9.00;;;;;;;;;;5034224;28;20040;-61
2022/08/19 01:20:14;;;;;;;9.63;8.63;;;;;;;;;;5034438;28;20025;-61
2022/08/19 01:22:44;;;;;;;9.80;8.95;;;;;;;;;;5034409;28;20423;-61
2022/08/19 01:25:09;;;;;;;10.93;9.23;;;;;;;;;;5034669;28;20028;-61
2022/08/19 01:27:48;;;;;;;11.23;8.52;;;;;;;;;;5034050;28;20033;-61
2022/08/19 01:30:21;;;;;;;8.85;8.05;;;;;;;;;;5034326;28;20518;-61
2022/08/19 01:32:46;;;;;;;9.95;9.02;;;;;;;;;;5034197;28;20080;-61
2022/08/19 01:35:12;;;;;;;9.85;8.85;;;;;;;;;;5033982;28;20021;-61
2022/08/19 01:37:44;;;;;;;10.02;9.10;;;;;;;;;;5034485;28;20523;-61
2022/08/19 01:40:10;;;;;;;9.70;8.73;;;;;;;;;;5034185;28;20079;-61
2022/08/19 01:42:35;;;;;;;10.40;9.32;;;;;;;;;;5033810;28;20477;-61
2022/08/19 01:45:01;;;;;;;9.02;8.25;;;;;;;;;;5034337;28;20033;-61
2022/08/19 01:47:26;;;;;;;9.95;9.02;;;;;;;;;;5034387;28;20021;-61
2022/08/19 01:49:52;;;;;;;9.50;8.57;;;;;;;;;;5033735;28;20472;-61
2022/08/19 01:52:17;;;;;;;9.15;8.00;;;;;;;;;;5033565;28;20041;-61
2022/08/19 01:54:42;;;;;;;8.23;7.45;;;;;;;;;;5033995;28;20025;-61
2022/08/19 01:57:11;;;;;;;9.45;8.57;;;;;;;;;;5033943;28;20037;-61
2022/08/19 01:59:36;;;;;;;8.70;7.95;;;;;;;;;;5033956;28;20048;-61
2022/08/19 02:02:03;;;;;;;8.80;8.00;;;;;;;;;;5033588;28;20448;-61
2022/08/19 02:04:29;;;;;;;9.68;8.77;;;;;;;;;;5033625;28;20033;-61
2022/08/19 02:06:54;;;;;;;10.30;9.10;;;;;;;;;;5033610;28;20411;-61
2022/08/19 02:09:20;;;;;;;10.35;8.07;;;;;;;;;;5033794;28;20044;-61
2022/08/19 02:11:45;;;;;;;9.77;8.77;;;;;;;;;;5033519;28;20531;-60
2022/08/19 02:14:11;;;;;;;10.02;9.02;;;;;;;;;;5033417;28;20429;-61
2022/08/19 02:16:37;;;;;;;10.27;8.52;;;;;;;;;;5033721;28;20014;-61
2022/08/19 02:19:03;;;;;;;10.55;8.60;;;;;;;;;;5033749;28;20411;-61
2022/08/19 02:21:29;;;;;;;8.77;7.97;;;;;;;;;;5033439;28;20101;-61
2022/08/19 02:23:55;;;;;;;10.38;8.57;;;;;;;;;;5033402;28;20033;-60
2022/08/19 02:26:21;;;;;;;9.88;8.88;;;;;;;;;;5033693;28;20064;-61
2022/08/19 02:28:47;;;;;;;8.02;7.32;;;;;;;;;;5015817;28;20033;-61
2022/08/19 02:31:14;;;;;;;8.48;7.13;;;;;;;;;;5033659;28;20025;-61
2022/08/19 02:33:40;;;;;;;8.68;7.78;;;;;;;;;;5033532;28;20481;-61
2022/08/19 02:36:06;;;;;;;9.60;7.55;;;;;;;;;;5033580;28;20017;-60
2022/08/19 02:38:32;;;;;;;8.43;7.63;;;;;;;;;;5033565;28;20079;-61
2022/08/19 02:41:02;;;;;;;8.82;7.95;;;;;;;;;;5033264;28;20021;-61
2022/08/19 02:43:28;;;;;;;9.55;8.63;;;;;;;;;;5033246;28;20042;-61
2022/08/19 02:45:53;;;;;;;10.48;8.73;;;;;;;;;;5033495;28;20388;-61
2022/08/19 02:48:20;;;;;;;9.20;8.27;;;;;;;;;;5033484;28;20029;-61
2022/08/19 02:50:45;;;;;;;8.63;7.72;;;;;;;;;;5033179;28;20071;-61
2022/08/19 02:53:11;;;;;;;8.07;7.38;;;;;;;;;;5032957;28;20465;-61
2022/08/19 02:55:42;;;;;;;9.45;8.55;;;;;;;;;;5033692;28;20108;-61
2022/08/19 02:58:08;;;;;;;11.13;8.70;;;;;;;;;;5033106;28;20060;-61
2022/08/19 03:00:33;;;;;;;8.75;7.90;;;;;;;;;;5033390;28;20017;-61
2022/08/19 03:03:00;;;;;;;9.20;8.40;;;;;;;;;;5032956;28;20063;-61
2022/08/19 03:05:25;;;;;;;9.25;8.43;;;;;;;;;;5033349;28;20022;-61
2022/08/19 03:07:51;;;;;;;9.45;8.48;;;;;;;;;;5033317;28;20037;-61
2022/08/19 03:10:16;;;;;;;8.88;8.07;;;;;;;;;;5015331;28;20395;-61
2022/08/19 03:12:43;;;;;;;10.00;9.02;;;;;;;;;;5033143;28;20119;-61
2022/08/19 03:15:08;;;;;;;9.20;8.23;;;;;;;;;;5033195;28;20021;-61
2022/08/19 03:17:34;;;;;;;9.38;8.07;;;;;;;;;;5035717;28;20495;-61
2022/08/19 03:19:59;;;;;;;9.60;8.70;;;;;;;;;;5036454;28;20018;-61
2022/08/19 03:22:25;;;;;;;11.38;9.05;;;;;;;;;;5036634;28;20392;-61
2022/08/19 03:24:50;;;;;;;9.02;8.32;;;;;;;;;;5036315;28;20018;-61
2022/08/19 03:27:17;;;;;;;8.80;7.93;;;;;;;;;;5036571;28;20035;-61
2022/08/19 03:29:43;;;;;;;10.38;8.75;;;;;;;;;;5036560;28;20014;-61
2022/08/19 03:32:09;;;;;;;9.77;8.75;;;;;;;;;;5036534;28;20025;-61
2022/08/19 03:34:36;;;;;;;10.07;9.07;;;;;;;;;;5036131;28;20096;-61
2022/08/19 03:37:07;;;;;;;10.18;9.15;;;;;;;;;;5036400;28;20025;-61
2022/08/19 03:39:33;;;;;;;9.27;8.45;;;;;;;;;;5036367;28;20372;-61
2022/08/19 03:42:02;;;;;;;8.48;7.80;;;;;;;;;;5036336;28;20083;-61
2022/08/19 03:44:28;;;;;;;10.57;9.23;;;;;;;;;;5036564;28;20079;-61
2022/08/19 03:46:55;;;;;;;9.32;8.43;;;;;;;;;;5036245;28;20468;-61
2022/08/19 03:49:22;;;;;;;10.18;9.30;;;;;;;;;;5036160;28;20037;-61
2022/08/19 03:51:48;;;;;;;12.25;9.20;;;;;;;;;;5035937;28;20132;-61
2022/08/19 03:54:14;;;;;;;9.95;8.95;;;;;;;;;;5036255;28;20025;-61
2022/08/19 03:56:41;;;;;;;9.18;8.30;;;;;;;;;;5036310;28;20067;-60
2022/08/19 03:59:07;;;;;;;10.98;9.10;;;;;;;;;;5035734;28;20419;-61
2022/08/19 04:01:35;;;;;;;9.45;8.70;;;;;;;;;;5036053;28;20184;-61
2022/08/19 04:04:00;;;;;;;9.88;9.07;;;;;;;;;;5035627;28;20033;-60
2022/08/19 04:06:27;;;;;;;9.20;8.38;;;;;;;;;;5035575;28;20035;-63
2022/08/19 04:08:54;;;;;;;10.40;8.68;;;;;;;;;;5036090;28;20535;-63
2022/08/19 04:11:22;;;;;;;10.43;9.15;;;;;;;;;;5035492;28;20506;-63
2022/08/19 04:13:47;;;;;;;11.10;9.13;;;;;;;;;;5017629;28;20041;-63
2022/08/19 04:16:13;;;;;;;9.73;8.55;;;;;;;;;;5035659;28;20097;-63
2022/08/19 04:18:39;;;;;;;11.00;8.90;;;;;;;;;;5035268;28;20021;-63
2022/08/19 04:21:05;;;;;;;12.30;8.43;;;;;;;;;;5035349;28;20093;-63
2022/08/19 04:23:31;;;;;;;9.18;8.40;;;;;;;;;;5035541;28;20463;-63
2022/08/19 04:25:56;;;;;;;9.50;8.30;;;;;;;;;;5035211;28;20105;-63
2022/08/19 04:28:22;;;;;;;18.52;9.57;;;;;;;;;;5034524;28;20025;-63
2022/08/19 04:30:50;;;;;;;10.10;9.13;;;;;;;;;;5033117;28;20066;-63
2022/08/19 04:33:16;;;;;;;11.00;9.10;;;;;;;;;;5032991;28;20053;-63
2022/08/19 04:35:43;;;;;;;11.63;10.38;;;;;;;;;;5032968;28;20090;-63
2022/08/19 04:38:09;;;;;;;19.60;10.65;;;;;;;;;;5032942;28;20025;-63
2022/08/19 04:43:23;;;;;;;20.20;10.75;;;;;;;;;;5032863;28;20038;-63
2022/08/19 04:45:48;;;;;;;12.38;9.68;;;;;;;;;;5033116;28;20021;-63
2022/08/19 04:48:14;;;;;;;11.02;9.30;;;;;;;;;;5016118;28;20037;-63
2022/08/19 04:50:40;;;;;;;10.88;8.85;;;;;;;;;;5035273;28;20026;-63
2022/08/19 04:53:06;;;;;;;9.95;8.98;;;;;;;;;;5034569;28;20396;-63
2022/08/19 04:55:31;;;;;;;10.48;9.55;;;;;;;;;;5034903;28;20025;-63
2022/08/19 04:57:57;;;;;;;9.43;8.52;;;;;;;;;;5034550;28;20124;-63
2022/08/19 05:00:23;;;;;;;11.05;9.20;;;;;;;;;;5035091;28;20013;-63
2022/08/19 05:02:49;;;;;;;9.55;8.68;;;;;;;;;;5035049;28;20029;-63
2022/08/19 05:05:14;;;;;;;9.57;8.57;;;;;;;;;;5034473;28;20025;-63
2022/08/19 05:07:40;;;;;;;10.23;9.02;;;;;;;;;;5034450;28;20492;-63
2022/08/19 05:10:07;;;;;;;10.20;8.88;;;;;;;;;;5034395;28;20025;-63
2022/08/19 05:12:32;;;;;;;10.23;9.20;;;;;;;;;;5034223;28;20036;-63
2022/08/19 05:14:58;;;;;;;11.57;9.40;;;;;;;;;;5034841;28;20022;-63
2022/08/19 05:17:25;;;;;;;9.85;8.85;;;;;;;;;;5034276;28;20476;-63
2022/08/19 05:22:37;;;;;;;10.77;8.77;;;;;;;;;;5034459;28;20517;-63
2022/08/19 05:25:05;;;;;;;10.13;9.13;;;;;;;;;;5034439;28;20024;-63
2022/08/19 05:27:30;;;;;;;10.32;8.32;;;;;;;;;;5016362;28;20120;-63
2022/08/19 05:29:56;;;;;;;9.50;8.70;;;;;;;;;;5034601;28;20095;-63
2022/08/19 05:32:23;;;;;;;9.50;8.55;;;;;;;;;;5033897;28;20036;-63
2022/08/19 05:34:48;;;;;;;10.10;8.40;;;;;;;;;;5033973;28;20019;-63
2022/08/19 05:37:14;;;;;;;11.52;8.95;;;;;;;;;;5034215;28;20117;-63
2022/08/19 05:39:40;;;;;;;9.73;8.73;;;;;;;;;;5033444;28;20017;-62
2022/08/19 05:42:07;;;;;;;9.73;8.70;;;;;;;;;;5034953;28;20022;-63
2022/08/19 05:44:33;;;;;;;9.45;8.55;;;;;;;;;;5033875;28;20032;-63
2022/08/19 05:47:00;;;;;;;10.32;8.57;;;;;;;;;;5016052;28;20430;-63
2022/08/19 05:49:26;;;;;;;9.55;8.48;;;;;;;;;;5034068;28;20017;-63
2022/08/19 05:51:52;;;;;;;9.65;8.10;;;;;;;;;;5033904;28;20554;-63
2022/08/19 05:54:18;;;;;;;9.30;8.40;;;;;;;;;;5033671;28;20025;-63
2022/08/19 05:56:47;;;;;;;9.88;8.85;;;;;;;;;;5033977;28;20029;-63
2022/08/19 05:59:12;;;;;;;8.57;7.72;;;;;;;;;;5033694;28;20053;-63
2022/08/19 06:01:39;;;;;;;11.75;8.73;;;;;;;;;;5033919;28;20353;-63
2022/08/19 06:04:04;;;;;;;9.40;8.32;;;;;;;;;;5033630;28;20021;-63
2022/08/19 06:06:30;;;;;;;9.30;8.23;;;;;;;;;;5033596;28;20460;-63
2022/08/19 06:08:55;;;;;;;9.30;8.40;;;;;;;;;;5033601;28;20017;-63
2022/08/19 06:11:32;;;;;;;9.15;8.25;;;;;;;;;;5034096;28;20029;-63
2022/08/19 06:13:59;;;;;;;8.95;8.00;;;;;;;;;;5033467;28;20049;-63
2022/08/19 06:16:26;;;;;;;9.95;8.40;;;;;;;;;;5033796;28;20024;-63
2022/08/19 06:18:52;;;;;;;10.38;7.82;;;;;;;;;;5033487;28;20030;-63
2022/08/19 06:21:21;;;;;;;10.48;8.80;;;;;;;;;;5033998;28;20021;-63
2022/08/19 06:23:47;;;;;;;9.00;7.65;;;;;;;;;;5033728;28;20135;-63
2022/08/19 06:26:13;;;;;;;9.23;8.32;;;;;;;;;;5033422;28;20468;-63
2022/08/19 06:28:42;;;;;;;9.20;8.30;;;;;;;;;;5033655;28;20064;-63
2022/08/19 06:31:08;;;;;;;8.98;8.18;;;;;;;;;;5033613;28;20044;-63
2022/08/19 06:33:33;;;;;;;8.45;7.38;;;;;;;;;;5033552;28;20384;-63
2022/08/19 06:35:59;;;;;;;8.45;7.55;;;;;;;;;;5033298;28;20029;-63
2022/08/19 06:38:24;;;;;;;9.63;8.40;;;;;;;;;;5033509;28;20032;-63
2022/08/19 06:40:49;;;;;;;9.50;8.35;;;;;;;;;;5033522;28;20024;-63
2022/08/19 06:43:15;;;;;;;10.25;8.25;;;;;;;;;;5033236;28;20026;-63
2022/08/19 06:45:41;;;;;;;9.95;8.57;;;;;;;;;;5015574;28;20419;-63
2022/08/19 06:48:07;;;;;;;11.02;8.02;;;;;;;;;;5033492;28;20620;-63
2022/08/19 06:50:32;;;;;;;9.07;8.18;;;;;;;;;;5033479;28;20030;-63
2022/08/19 06:52:57;;;;;;;8.50;7.78;;;;;;;;;;5036255;28;20068;-63
2022/08/19 06:55:23;;;;;;;9.60;8.65;;;;;;;;;;5037454;28;20051;-63
2022/08/19 06:57:50;;;;;;;8.93;7.90;;;;;;;;;;5036819;28;20471;-63
2022/08/19 07:00:15;;;;;;;8.65;7.85;;;;;;;;;;5037418;28;20014;-63
2022/08/19 07:02:42;;;;;;;10.55;7.97;;;;;;;;;;5037044;28;20033;-63
2022/08/19 07:05:07;;;;;;;7.60;7.00;;;;;;;;;;5036763;28;20476;-63
2022/08/19 07:07:34;;;;;;;9.27;7.38;;;;;;;;;;5036973;28;20044;-63
2022/08/19 07:09:59;;;;;;;8.75;8.00;;;;;;;;;;5036674;28;20021;-63
2022/08/19 07:12:25;;;;;;;9.60;7.50;;;;;;;;;;5036564;28;20028;-63
2022/08/19 07:14:52;;;;;;;7.82;7.13;;;;;;;;;;5036872;28;20071;-63
2022/08/19 07:17:19;;;;;;;7.93;7.32;;;;;;;;;;5037109;28;20037;-63
2022/08/19 07:19:45;;;;;;;10.10;7.32;;;;;;;;;;5036530;28;20070;-63
2022/08/19 07:22:10;;;;;;;8.75;7.03;;;;;;;;;;5036750;28;20045;-63
2022/08/19 07:24:36;;;;;;;7.50;6.82;;;;;;;;;;5036442;28;20025;-63
2022/08/19 07:27:04;;;;;;;6.55;5.97;;;;;;;;;;5036296;28;20123;-63
2022/08/19 07:29:30;;;;;;;7.05;5.93;;;;;;;;;;5018721;28;20043;-63
2022/08/19 07:31:56;;;;;;;7.78;7.00;;;;;;;;;;5036559;28;20487;-63
2022/08/19 07:34:22;;;;;;;8.70;7.40;;;;;;;;;;5036135;28;20064;-63
2022/08/19 07:36:49;;;;;;;8.32;7.00;;;;;;;;;;5036187;28;20037;-63
2022/08/19 07:39:25;;;;;;;6.10;5.60;;;;;;;;;;5036420;28;20017;-63
2022/08/19 07:41:50;;;;;;;5.55;5.15;;;;;;;;;;5036327;28;20053;-63
2022/08/19 07:44:17;;;;;;;6.63;6.03;;;;;;;;;;5036364;28;20069;-63
2022/08/19 07:46:44;;;;;;;7.10;6.45;;;;;;;;;;5036029;28;20025;-63
2022/08/19 07:49:14;;;;;;;7.68;6.95;;;;;;;;;;5035854;28;20025;-63
2022/08/19 07:51:39;;;;;;;7.55;6.22;;;;;;;;;;5036099;28;20045;-63
2022/08/19 07:54:05;;;;;;;6.60;6.00;;;;;;;;;;5035785;28;20036;-63
2022/08/19 07:56:31;;;;;;;11.40;5.30;;;;;;;;;;5036397;28;20128;-63
2022/08/19 07:58:56;;;;;;;9.05;5.53;;;;;;;;;;5036051;28;20111;-63
2022/08/19 08:01:23;;;;;;;6.78;5.43;;;;;;;;;;5035702;28;20375;-63
2022/08/19 08:09:21;;;;;;;6.55;5.05;;;;;;;;;;5035570;28;20485;-63
2022/08/19 08:11:52;;;;;;;6.15;4.80;;;;;;;;;;5035822;28;20018;-63
2022/08/19 08:14:23;;;;;;;6.43;4.72;;;;;;;;;;5035389;28;20123;-63
2022/08/19 08:16:49;;;;;;;8.45;4.55;;;;;;;;;;5035509;28;20056;-63
2022/08/19 08:19:15;;;;;;;6.78;4.72;;;;;;;;;;5035393;28;20013;-63
2022/08/19 08:21:41;;;;;;;6.68;4.60;;;;;;;;;;5035358;28;20037;-63
2022/08/19 08:24:06;;;;;;;5.30;4.60;;;;;;;;;;5035301;28;20040;-63
2022/08/19 08:26:32;;;;;;;9.20;4.57;;;;;;;;;;5035543;28;20057;-63
2022/08/19 08:28:58;;;;;;;4.72;4.32;;;;;;;;;;5035160;28;20021;-63
2022/08/19 08:31:23;;;;;;;5.18;4.68;;;;;;;;;;5035437;28;20136;-63
2022/08/19 08:33:49;;;;;;;6.32;4.35;;;;;;;;;;5035055;28;20056;-63
2022/08/19 08:36:14;;;;;;;6.65;4.68;;;;;;;;;;5035846;28;20041;-63
2022/08/19 08:38:41;;;;;;;4.85;4.45;;;;;;;;;;5035277;28;20021;-63
2022/08/19 08:41:27;;;;;;;5.97;4.63;;;;;;;;;;5034991;28;20079;-63
2022/08/19 08:43:53;;;;;;;5.80;4.97;;;;;;;;;;5035219;28;20439;-63
2022/08/19 08:46:21;;;;;;;7.10;4.72;;;;;;;;;;5034881;28;20045;-63
2022/08/19 08:48:49;;;;;;;4.45;4.15;;;;;;;;;;5034840;28;20416;-63
2022/08/19 08:51:18;;;;;;;7.55;4.85;;;;;;;;;;5034871;28;20048;-63
2022/08/19 08:53:46;;;;;;;7.05;5.28;;;;;;;;;;5034925;28;20029;-63
2022/08/19 08:56:12;;;;;;;6.97;4.50;;;;;;;;;;5034656;28;20017;-63
2022/08/19 08:58:56;;;;;;;5.68;4.68;;;;;;;;;;5034646;28;20029;-63
2022/08/19 09:01:22;;;;;;;5.60;4.38;;;;;;;;;;5035162;28;20052;-63
2022/08/19 09:03:47;;;;;;;8.60;4.40;;;;;;;;;;5034779;28;20026;-63
2022/08/19 09:06:13;;;;;;;4.80;4.40;;;;;;;;;;5034795;28;20112;-63
2022/08/19 09:08:57;;;;;;;10.00;4.95;;;;;;;;;;5034443;28;20026;-63
2022/08/19 09:11:32;;;;;;;6.50;4.45;;;;;;;;;;5034962;28;20034;-63
2022/08/19 09:14:16;;;;;;;7.13;4.35;;;;;;;;;;5033486;28;20087;-63
2022/08/19 09:16:42;;;;;;;9.27;4.63;;;;;;;;;;5034565;28;20052;-63
2022/08/19 09:19:07;;;;;;;5.50;4.03;;;;;;;;;;5034553;28;20028;-63
2022/08/19 09:21:34;;;;;;;8.60;4.32;;;;;;;;;;5034219;28;20026;-63
2022/08/19 09:24:00;;;;;;;6.75;4.22;;;;;;;;;;5034216;28;20026;-63
2022/08/19 09:26:26;;;;;;;8.30;4.50;;;;;;;;;;5034450;28;20033;-63
2022/08/19 09:28:52;;;;;;;5.05;4.38;;;;;;;;;;5016471;28;20078;-63
2022/08/19 09:31:25;;;;;;;7.55;4.50;;;;;;;;;;5034373;28;20107;-63
2022/08/19 09:33:51;;;;;;;6.40;4.60;;;;;;;;;;5034216;28;20041;-63
2022/08/19 09:36:19;;;;;;;6.78;5.40;;;;;;;;;;5034507;28;20025;-63
2022/08/19 09:38:44;;;;;;;6.93;4.78;;;;;;;;;;5033994;28;20022;-63
2022/08/19 09:41:13;;;;;;;6.85;4.88;;;;;;;;;;5033933;28;20475;-64
2022/08/19 09:43:39;;;;;;;7.68;4.15;;;;;;;;;;5034166;28;20353;-63
2022/08/19 09:46:06;;;;;;;6.95;4.80;;;;;;;;;;5034147;28;20025;-63
2022/08/19 09:48:32;;;;;;;9.27;4.10;;;;;;;;;;5034098;28;20034;-63
2022/08/19 09:51:12;;;;;;;6.72;4.45;;;;;;;;;;5034165;28;20027;-63
2022/08/19 09:53:38;;;;;;;6.28;4.10;;;;;;;;;;5033921;28;20439;-63
2022/08/19 09:56:04;;;;;;;5.90;4.00;;;;;;;;;;5033993;28;20037;-63
2022/08/19 09:58:30;;;;;;;7.18;3.90;;;;;;;;;;5034259;28;20107;-63
2022/08/19 10:00:56;;;;;;;5.22;4.03;;;;;;;;;;5033688;28;20467;-63
2022/08/19 10:03:22;;;;;;;7.55;4.07;;;;;;;;;;5033664;28;20063;-63
2022/08/19 10:05:48;;;;;;;6.75;4.38;;;;;;;;;;5016294;28;20104;-63
2022/08/19 10:08:14;;;;;;;11.75;4.60;;;;;;;;;;5033627;28;20172;-63
2022/08/19 10:10:43;;;;;;;8.73;4.90;;;;;;;;;;5033851;28;20040;-63
2022/08/19 10:13:09;;;;;;;8.75;5.13;;;;;;;;;;5033725;28;20029;-63
2022/08/19 10:15:35;;;;;;;6.72;4.22;;;;;;;;;;5033519;28;20022;-63
2022/08/19 10:18:01;;;;;;;4.75;4.22;;;;;;;;;;5034013;28;20026;-63
2022/08/19 10:20:26;;;;;;;5.15;4.70;;;;;;;;;;5033476;28;20479;-63
2022/08/19 10:22:52;;;;;;;6.90;4.10;;;;;;;;;;5033643;28;20061;-63
2022/08/19 10:25:17;;;;;;;7.60;4.20;;;;;;;;;;5034151;28;20036;-63
2022/08/19 10:27:42;;;;;;;5.13;4.00;;;;;;;;;;5037470;28;20112;-63
2022/08/19 10:30:08;;;;;;;6.80;4.22;;;;;;;;;;5037706;28;20017;-63
2022/08/19 10:32:34;;;;;;;5.40;4.55;;;;;;;;;;5037852;28;20369;-64
2022/08/19 10:35:00;;;;;;;9.90;5.13;;;;;;;;;;5037327;28;20056;-63
2022/08/19 10:37:26;;;;;;;6.20;5.43;;;;;;;;;;5037595;28;20464;-63
2022/08/19 10:39:51;;;;;;;7.75;5.28;;;;;;;;;;5037279;28;20027;-63
2022/08/19 10:42:18;;;;;;;10.32;5.45;;;;;;;;;;5037766;28;20018;-63
2022/08/19 10:44:44;;;;;;;8.15;5.88;;;;;;;;;;5037454;28;20021;-63
2022/08/19 10:47:09;;;;;;;8.82;4.15;;;;;;;;;;5037680;28;20037;-63
2022/08/19 10:52:32;;;;;;;7.47;5.20;;;;;;;;;;5037635;28;20029;-63
2022/08/19 10:52:33;;;;;;;7.88;4.93;;;;;;;;;;5036891;28;20037;-63
2022/08/19 10:57:47;;;;;;;7.18;4.32;;;;;;;;;;5037184;28;20498;-63
2022/08/19 11:00:13;;;;;;;6.55;4.30;;;;;;;;;;5036880;28;20043;-63
2022/08/19 11:02:38;;;;;;;7.95;4.75;;;;;;;;;;5037398;28;20034;-63
2022/08/19 11:05:04;;;;;;;6.30;4.72;;;;;;;;;;5036812;28;20029;-63
2022/08/19 11:07:29;;;;;;;6.15;5.22;;;;;;;;;;5037044;28;20025;-63
2022/08/19 11:09:55;;;;;;;7.88;4.60;;;;;;;;;;5036736;28;20028;-63
2022/08/19 11:12:21;;;;;;;8.40;4.53;;;;;;;;;;5036658;28;20040;-63
2022/08/19 11:14:47;;;;;;;8.10;5.07;;;;;;;;;;5036558;28;20021;-63
2022/08/19 11:17:13;;;;;;;7.95;4.75;;;;;;;;;;5036829;28;20032;-63
2022/08/19 11:19:38;;;;;;;7.07;4.45;;;;;;;;;;5036526;28;20403;-63
2022/08/19 11:22:08;;;;;;;9.80;4.70;;;;;;;;;;5036469;28;20029;-63
2022/08/19 11:24:33;;;;;;;8.35;4.70;;;;;;;;;;5018768;28;20049;-63
2022/08/19 11:27:05;;;;;;;8.68;4.28;;;;;;;;;;5036660;28;20061;-63
2022/08/19 11:29:31;;;;;;;7.18;4.95;;;;;;;;;;5036628;28;20033;-63
2022/08/19 11:31:56;;;;;;;5.43;4.35;;;;;;;;;;5036597;28;20387;-63
2022/08/19 11:34:25;;;;;;;6.15;5.47;;;;;;;;;;5018411;28;20034;-64
2022/08/19 11:36:51;;;;;;;7.05;4.53;;;;;;;;;;5035641;28;20022;-63
2022/08/19 11:39:19;;;;;;;9.38;4.70;;;;;;;;;;5018484;28;20049;-64
2022/08/19 11:41:44;;;;;;;11.43;4.43;;;;;;;;;;5036419;28;20029;-64
2022/08/19 11:44:09;;;;;;;7.78;4.40;;;;;;;;;;5036347;28;20033;-63
2022/08/19 11:46:36;;;;;;;7.72;4.47;;;;;;;;;;5036041;28;20511;-63
2022/08/19 11:49:02;;;;;;;9.38;3.90;;;;;;;;;;5036001;28;20506;-63
2022/08/19 11:51:28;;;;;;;7.15;3.63;;;;;;;;;;5036015;28;20133;-63
2022/08/19 11:53:54;;;;;;;8.45;4.38;;;;;;;;;;5035789;28;20112;-63
2022/08/19 11:56:20;;;;;;;10.95;5.13;;;;;;;;;;5035771;28;20071;-63
2022/08/19 11:58:46;;;;;;;8.02;4.57;;;;;;;;;;5036120;28;20075;-63
2022/08/19 12:01:14;;;;;;;8.68;5.50;;;;;;;;;;5035741;28;20092;-63
2022/08/19 12:03:40;;;;;;;5.32;3.97;;;;;;;;;;5035718;28;20056;-63
2022/08/19 12:06:06;;;;;;;9.93;5.45;;;;;;;;;;5035691;28;20460;-63
2022/08/19 12:08:32;;;;;;;11.95;5.80;;;;;;;;;;5018027;28;20490;-63
2022/08/19 12:10:57;;;;;;;7.38;4.28;;;;;;;;;;5035546;28;20112;-63
2022/08/19 12:13:22;;;;;;;7.90;4.28;;;;;;;;;;5035515;28;20045;-64
2022/08/19 12:15:48;;;;;;;7.55;4.50;;;;;;;;;;5035492;28;20096;-63
2022/08/19 12:18:13;;;;;;;6.30;4.25;;;;;;;;;;5035740;28;20124;-64
2022/08/19 12:20:40;;;;;;;7.35;3.92;;;;;;;;;;5035381;28;20483;-63
2022/08/19 12:23:06;;;;;;;9.52;4.13;;;;;;;;;;5035642;28;20087;-63
2022/08/19 12:25:32;;;;;;;6.80;3.92;;;;;;;;;;5035289;28;20030;-63
2022/08/19 12:27:58;;;;;;;5.50;3.88;;;;;;;;;;5035498;28;20065;-63
2022/08/19 12:30:23;;;;;;;10.38;4.68;;;;;;;;;;5017478;28;20048;-63
2022/08/19 12:32:50;;;;;;;6.45;4.38;;;;;;;;;;5035069;28;20429;-63
2022/08/19 12:35:17;;;;;;;6.18;4.13;;;;;;;;;;5035130;28;20482;-63
2022/08/19 12:37:44;;;;;;;7.88;4.38;;;;;;;;;;5035230;28;20100;-63
2022/08/19 12:40:11;;;;;;;9.80;4.90;;;;;;;;;;5017374;28;20023;-63
2022/08/19 12:42:37;;;;;;;6.55;5.03;;;;;;;;;;5017614;28;20104;-63
2022/08/19 12:45:03;;;;;;;13.85;5.15;;;;;;;;;;5035215;28;20017;-63
2022/08/19 12:47:29;;;;;;;8.00;4.57;;;;;;;;;;5035151;28;20052;-64
2022/08/19 12:49:54;;;;;;;9.30;4.93;;;;;;;;;;5035374;28;20071;-63
2022/08/19 12:52:20;;;;;;;9.60;4.32;;;;;;;;;;5034586;28;20546;-63
2022/08/19 12:54:46;;;;;;;10.45;4.95;;;;;;;;;;5034955;28;20029;-63
2022/08/19 12:57:12;;;;;;;14.50;5.05;;;;;;;;;;5034646;28;20384;-63
2022/08/19 12:59:38;;;;;;;10.75;5.28;;;;;;;;;;5034665;28;20029;-63
2022/08/19 13:02:05;;;;;;;13.30;6.13;;;;;;;;;;5034618;28;20040;-63
2022/08/19 13:04:31;;;;;;;9.20;5.80;;;;;;;;;;5034545;28;20025;-63
2022/08/19 13:06:58;;;;;;;9.60;4.70;;;;;;;;;;5035092;28;20072;-63
2022/08/19 13:09:23;;;;;;;8.02;4.45;;;;;;;;;;5034484;28;20032;-64
2022/08/19 13:11:49;;;;;;;6.60;4.18;;;;;;;;;;5034383;28;20029;-63
2022/08/19 13:14:14;;;;;;;11.50;4.70;;;;;;;;;;5034875;28;20112;-63
2022/08/19 13:16:41;;;;;;;8.15;4.70;;;;;;;;;;5034312;28;20056;-63
2022/08/19 13:19:07;;;;;;;6.13;4.80;;;;;;;;;;5034344;28;20113;-63
2022/08/19 13:21:33;;;;;;;10.48;4.72;;;;;;;;;;5034278;28;20472;-63
2022/08/19 13:23:58;;;;;;;11.63;4.97;;;;;;;;;;5034480;28;20028;-63
2022/08/19 13:26:23;;;;;;;9.02;4.60;;;;;;;;;;5034155;28;20032;-63
2022/08/19 13:34:26;;;;;;;7.10;4.03;;;;;;;;;;5034240;28;20056;-63
2022/08/19 13:36:54;;;;;;;10.77;5.22;;;;;;;;;;5033988;28;20438;-64
2022/08/19 13:39:20;;;;;;;12.18;5.70;;;;;;;;;;5033976;28;20095;-63
2022/08/19 13:41:49;;;;;;;8.85;4.57;;;;;;;;;;5033959;28;20047;-63
2022/08/19 13:44:17;;;;;;;11.07;5.57;;;;;;;;;;5034024;28;20452;-63
2022/08/19 13:46:44;;;;;;;7.53;4.05;;;;;;;;;;5033779;28;20044;-63
2022/08/19 13:49:10;;;;;;;12.52;4.88;;;;;;;;;;5016338;28;20030;-64
2022/08/19 13:51:38;;;;;;;10.43;4.28;;;;;;;;;;5032341;28;20049;-63
2022/08/19 13:54:03;;;;;;;7.20;4.85;;;;;;;;;;5032662;28;20045;-63
2022/08/19 13:56:29;;;;;;;8.80;4.40;;;;;;;;;;5032655;28;20025;-63
2022/08/19 13:58:54;;;;;;;9.73;5.05;;;;;;;;;;5032639;28;20053;-64
2022/08/19 14:01:21;;;;;;;12.13;4.82;;;;;;;;;;5032785;28;20026;-63
2022/08/19 14:03:46;;;;;;;12.43;5.13;;;;;;;;;;5032260;28;20049;-64
2022/08/19 14:06:12;;;;;;;8.88;4.30;;;;;;;;;;5032571;28;20420;-63
2022/08/19 14:08:39;;;;;;;9.82;4.15;;;;;;;;;;5032550;28;20048;-64
2022/08/19 14:11:04;;;;;;;10.32;4.60;;;;;;;;;;5032531;28;20051;-64
2022/08/19 14:13:30;;;;;;;9.85;5.07;;;;;;;;;;5032415;28;20038;-63
2022/08/19 14:15:56;;;;;;;12.48;5.03;;;;;;;;;;5032086;28;20026;-64
2022/08/19 14:18:22;;;;;;;12.27;5.10;;;;;;;;;;5032432;28;20472;-63
2022/08/19 14:20:47;;;;;;;10.07;5.07;;;;;;;;;;5032686;28;20349;-63
2022/08/19 14:23:13;;;;;;;9.63;5.35;;;;;;;;;;5032377;28;20064;-64
2022/08/19 14:25:39;;;;;;;7.30;5.40;;;;;;;;;;5032417;28;20104;-64
2022/08/19 14:28:04;;;;;;;9.73;6.13;;;;;;;;;;5032387;28;20097;-63
2022/08/19 14:30:32;;;;;;;7.43;5.45;;;;;;;;;;5031955;28;20025;-63
2022/08/19 14:32:58;;;;;;;8.43;6.07;;;;;;;;;;5032131;28;20083;-64
2022/08/19 14:35:24;;;;;;;8.75;6.05;;;;;;;;;;5032178;28;20026;-63
2022/08/19 14:37:50;;;;;;;7.70;5.43;;;;;;;;;;5032194;28;20383;-64
2022/08/19 14:40:17;;;;;;;8.60;6.43;;;;;;;;;;5032258;28;20025;-63
2022/08/19 14:42:43;;;;;;;6.53;5.88;;;;;;;;;;5031909;28;20079;-63
2022/08/19 14:45:09;;;;;;;8.10;5.28;;;;;;;;;;5032017;28;20045;-64
2022/08/19 14:47:34;;;;;;;10.43;6.20;;;;;;;;;;5032120;28;20044;-64
2022/08/19 14:49:59;;;;;;;9.07;6.18;;;;;;;;;;5031981;28;20025;-64
2022/08/19 14:52:25;;;;;;;10.48;6.38;;;;;;;;;;5031843;28;20045;-64
2022/08/19 14:54:51;;;;;;;9.00;6.22;;;;;;;;;;5031733;28;20127;-63